sensor_id;sensor_type;location;lat;lon;timestamp;P1;durP1;ratioP1;P2;durP2;ratioP2
10246;SDS011;5168;47.854;7.944;2023-08-24T00:00:45;4.87;;;2.70;;
10246;SDS011;5168;47.854;7.944;2023-08-24T00:03:10;3.87;;;2.60;;
10246;SDS011;5168;47.854;7.944;2023-08-24T00:05:36;4.50;;;3.17;;
10246;SDS011;5168;47.854;7.944;2023-08-24T00:08:03;3.17;;;2.60;;
10246;SDS011;5168;47.854;7.944;2023-08-24T00:10:32;3.20;;;2.90;;
10246;SDS011;5168;47.854;7.944;2023-08-24T00:12:58;6.10;;;2.70;;
10246;SDS011;5168;47.854;7.944;2023-08-24T00:15:24;4.10;;;2.80;;
10246;SDS011;5168;47.854;7.944;2023-08-24T00:17:50;2.80;;;2.50;;
10246;SDS011;5168;47.854;7.944;2023-08-24T00:20:16;8.00;;;2.37;;
10246;SDS011;5168;47.854;7.944;2023-08-24T00:22:42;2.90;;;2.70;;
10246;SDS011;5168;47.854;7.944;2023-08-24T00:25:08;4.30;;;2.70;;
10246;SDS011;5168;47.854;7.944;2023-08-24T00:27:34;3.30;;;3.00;;
10246;SDS011;5168;47.854;7.944;2023-08-24T00:30:01;4.20;;;2.63;;
10246;SDS011;5168;47.854;7.944;2023-08-24T00:32:29;4.70;;;2.90;;
10246;SDS011;5168;47.854;7.944;2023-08-24T00:34:59;2.87;;;2.60;;
10246;SDS011;5168;47.854;7.944;2023-08-24T00:37:25;3.40;;;2.80;;
10246;SDS011;5168;47.854;7.944;2023-08-24T00:39:51;3.30;;;3.00;;
10246;SDS011;5168;47.854;7.944;2023-08-24T00:42:17;2.77;;;2.57;;
10246;SDS011;5168;47.854;7.944;2023-08-24T00:44:43;4.53;;;3.00;;
10246;SDS011;5168;47.854;7.944;2023-08-24T00:47:08;3.53;;;2.97;;
10246;SDS011;5168;47.854;7.944;2023-08-24T00:49:34;5.07;;;3.20;;
10246;SDS011;5168;47.854;7.944;2023-08-24T00:52:00;3.27;;;2.97;;
10246;SDS011;5168;47.854;7.944;2023-08-24T00:54:26;3.77;;;3.10;;
10246;SDS011;5168;47.854;7.944;2023-08-24T00:56:52;3.33;;;3.03;;
10246;SDS011;5168;47.854;7.944;2023-08-24T00:59:18;3.40;;;3.10;;
10246;SDS011;5168;47.854;7.944;2023-08-24T01:01:44;3.13;;;2.83;;
10246;SDS011;5168;47.854;7.944;2023-08-24T01:04:11;4.23;;;3.30;;
10246;SDS011;5168;47.854;7.944;2023-08-24T01:06:38;3.83;;;3.43;;
10246;SDS011;5168;47.854;7.944;2023-08-24T01:09:04;5.00;;;3.63;;
10246;SDS011;5168;47.854;7.944;2023-08-24T01:14:11;5.37;;;3.43;;
10246;SDS011;5168;47.854;7.944;2023-08-24T01:16:58;3.70;;;3.30;;
10246;SDS011;5168;47.854;7.944;2023-08-24T01:22:06;3.90;;;3.33;;
10246;SDS011;5168;47.854;7.944;2023-08-24T01:24:39;3.40;;;3.10;;
10246;SDS011;5168;47.854;7.944;2023-08-24T01:27:09;4.77;;;3.00;;
10246;SDS011;5168;47.854;7.944;2023-08-24T01:29:36;3.47;;;3.17;;
10246;SDS011;5168;47.854;7.944;2023-08-24T01:32:04;6.80;;;3.20;;
10246;SDS011;5168;47.854;7.944;2023-08-24T01:34:30;3.80;;;3.40;;
10246;SDS011;5168;47.854;7.944;2023-08-24T01:36:55;4.33;;;2.97;;
10246;SDS011;5168;47.854;7.944;2023-08-24T01:39:24;4.03;;;3.20;;
10246;SDS011;5168;47.854;7.944;2023-08-24T01:41:59;4.40;;;3.20;;
10246;SDS011;5168;47.854;7.944;2023-08-24T01:44:28;3.47;;;2.80;;
10246;SDS011;5168;47.854;7.944;2023-08-24T01:46:59;5.10;;;3.37;;
10246;SDS011;5168;47.854;7.944;2023-08-24T01:49:29;3.90;;;3.13;;
10246;SDS011;5168;47.854;7.944;2023-08-24T01:51:56;4.47;;;3.53;;
10246;SDS011;5168;47.854;7.944;2023-08-24T01:54:22;4.13;;;3.00;;
10246;SDS011;5168;47.854;7.944;2023-08-24T01:56:48;3.17;;;2.80;;
10246;SDS011;5168;47.854;7.944;2023-08-24T01:59:14;2.77;;;2.57;;
10246;SDS011;5168;47.854;7.944;2023-08-24T02:01:39;3.47;;;3.00;;
10246;SDS011;5168;47.854;7.944;2023-08-24T02:04:05;2.80;;;2.60;;
10246;SDS011;5168;47.854;7.944;2023-08-24T02:06:31;3.33;;;2.70;;
10246;SDS011;5168;47.854;7.944;2023-08-24T02:08:56;4.03;;;2.73;;
10246;SDS011;5168;47.854;7.944;2023-08-24T02:11:22;4.63;;;2.87;;
10246;SDS011;5168;47.854;7.944;2023-08-24T02:13:48;3.80;;;3.20;;
10246;SDS011;5168;47.854;7.944;2023-08-24T02:16:13;4.13;;;3.07;;
10246;SDS011;5168;47.854;7.944;2023-08-24T02:18:39;4.07;;;3.00;;
10246;SDS011;5168;47.854;7.944;2023-08-24T02:21:08;3.87;;;2.90;;
10246;SDS011;5168;47.854;7.944;2023-08-24T02:23:36;3.20;;;2.77;;
10246;SDS011;5168;47.854;7.944;2023-08-24T02:26:02;3.03;;;2.73;;
10246;SDS011;5168;47.854;7.944;2023-08-24T02:28:28;4.37;;;2.97;;
10246;SDS011;5168;47.854;7.944;2023-08-24T02:30:54;2.80;;;2.60;;
10246;SDS011;5168;47.854;7.944;2023-08-24T02:33:20;4.87;;;3.47;;
10246;SDS011;5168;47.854;7.944;2023-08-24T02:35:48;3.33;;;3.03;;
10246;SDS011;5168;47.854;7.944;2023-08-24T02:38:14;4.07;;;3.07;;
10246;SDS011;5168;47.854;7.944;2023-08-24T02:40:40;4.20;;;3.20;;
10246;SDS011;5168;47.854;7.944;2023-08-24T02:43:06;3.50;;;3.20;;
10246;SDS011;5168;47.854;7.944;2023-08-24T02:45:32;4.07;;;3.13;;
10246;SDS011;5168;47.854;7.944;2023-08-24T02:47:58;5.20;;;3.47;;
10246;SDS011;5168;47.854;7.944;2023-08-24T02:50:24;3.90;;;3.00;;
10246;SDS011;5168;47.854;7.944;2023-08-24T02:52:50;5.13;;;3.47;;
10246;SDS011;5168;47.854;7.944;2023-08-24T02:55:16;5.90;;;4.00;;
10246;SDS011;5168;47.854;7.944;2023-08-24T02:57:42;4.40;;;3.40;;
10246;SDS011;5168;47.854;7.944;2023-08-24T03:00:07;5.13;;;3.47;;
10246;SDS011;5168;47.854;7.944;2023-08-24T03:02:34;4.57;;;3.37;;
10246;SDS011;5168;47.854;7.944;2023-08-24T03:05:01;4.60;;;3.10;;
10246;SDS011;5168;47.854;7.944;2023-08-24T03:07:27;7.57;;;3.30;;
10246;SDS011;5168;47.854;7.944;2023-08-24T03:09:53;4.73;;;3.60;;
10246;SDS011;5168;47.854;7.944;2023-08-24T03:12:18;3.53;;;3.23;;
10246;SDS011;5168;47.854;7.944;2023-08-24T03:14:44;5.23;;;3.77;;
10246;SDS011;5168;47.854;7.944;2023-08-24T03:17:10;5.10;;;3.40;;
10246;SDS011;5168;47.854;7.944;2023-08-24T03:19:35;3.70;;;3.37;;
10246;SDS011;5168;47.854;7.944;2023-08-24T03:22:01;3.63;;;3.30;;
10246;SDS011;5168;47.854;7.944;2023-08-24T03:24:27;4.57;;;3.43;;
10246;SDS011;5168;47.854;7.944;2023-08-24T03:26:53;4.30;;;3.57;;
10246;SDS011;5168;47.854;7.944;2023-08-24T03:29:18;6.17;;;3.93;;
10246;SDS011;5168;47.854;7.944;2023-08-24T03:31:44;5.90;;;3.27;;
10246;SDS011;5168;47.854;7.944;2023-08-24T03:34:10;3.83;;;3.43;;
10246;SDS011;5168;47.854;7.944;2023-08-24T03:36:35;6.43;;;3.83;;
10246;SDS011;5168;47.854;7.944;2023-08-24T03:39:03;4.10;;;3.17;;
10246;SDS011;5168;47.854;7.944;2023-08-24T03:41:29;4.63;;;3.97;;
10246;SDS011;5168;47.854;7.944;2023-08-24T03:43:55;7.43;;;3.60;;
10246;SDS011;5168;47.854;7.944;2023-08-24T03:46:21;7.03;;;3.47;;
10246;SDS011;5168;47.854;7.944;2023-08-24T03:48:46;4.40;;;3.10;;
10246;SDS011;5168;47.854;7.944;2023-08-24T03:51:12;4.60;;;3.33;;
10246;SDS011;5168;47.854;7.944;2023-08-24T03:53:38;4.03;;;3.17;;
10246;SDS011;5168;47.854;7.944;2023-08-24T03:56:04;4.73;;;3.33;;
10246;SDS011;5168;47.854;7.944;2023-08-24T03:58:29;4.93;;;3.37;;
10246;SDS011;5168;47.854;7.944;2023-08-24T04:00:55;4.87;;;3.10;;
10246;SDS011;5168;47.854;7.944;2023-08-24T04:03:21;4.93;;;3.47;;
10246;SDS011;5168;47.854;7.944;2023-08-24T04:05:47;4.33;;;3.13;;
10246;SDS011;5168;47.854;7.944;2023-08-24T04:08:13;4.07;;;3.27;;
10246;SDS011;5168;47.854;7.944;2023-08-24T04:10:38;4.30;;;3.03;;
10246;SDS011;5168;47.854;7.944;2023-08-24T04:13:04;9.17;;;3.27;;
10246;SDS011;5168;47.854;7.944;2023-08-24T04:15:30;7.23;;;3.50;;
10246;SDS011;5168;47.854;7.944;2023-08-24T04:17:56;7.07;;;3.27;;
10246;SDS011;5168;47.854;7.944;2023-08-24T04:20:21;5.03;;;3.33;;
10246;SDS011;5168;47.854;7.944;2023-08-24T04:22:47;4.97;;;3.00;;
10246;SDS011;5168;47.854;7.944;2023-08-24T04:25:13;4.27;;;2.80;;
10246;SDS011;5168;47.854;7.944;2023-08-24T04:27:38;5.10;;;3.03;;
10246;SDS011;5168;47.854;7.944;2023-08-24T04:30:05;5.03;;;3.13;;
10246;SDS011;5168;47.854;7.944;2023-08-24T04:32:34;3.37;;;2.83;;
10246;SDS011;5168;47.854;7.944;2023-08-24T04:34:59;4.83;;;3.40;;
10246;SDS011;5168;47.854;7.944;2023-08-24T04:37:25;5.13;;;3.67;;
10246;SDS011;5168;47.854;7.944;2023-08-24T04:39:51;5.77;;;2.70;;
10246;SDS011;5168;47.854;7.944;2023-08-24T04:42:16;3.40;;;3.10;;
10246;SDS011;5168;47.854;7.944;2023-08-24T04:44:42;7.53;;;3.07;;
10246;SDS011;5168;47.854;7.944;2023-08-24T04:47:07;3.43;;;2.70;;
10246;SDS011;5168;47.854;7.944;2023-08-24T04:49:33;8.90;;;3.17;;
10246;SDS011;5168;47.854;7.944;2023-08-24T04:51:59;3.87;;;3.20;;
10246;SDS011;5168;47.854;7.944;2023-08-24T04:54:25;3.67;;;2.97;;
10246;SDS011;5168;47.854;7.944;2023-08-24T04:56:50;3.93;;;2.87;;
10246;SDS011;5168;47.854;7.944;2023-08-24T04:59:16;5.83;;;3.07;;
10246;SDS011;5168;47.854;7.944;2023-08-24T05:01:42;4.80;;;3.10;;
10246;SDS011;5168;47.854;7.944;2023-08-24T05:04:08;7.33;;;3.33;;
10246;SDS011;5168;47.854;7.944;2023-08-24T05:06:33;5.47;;;3.30;;
10246;SDS011;5168;47.854;7.944;2023-08-24T05:08:59;4.53;;;3.27;;
10246;SDS011;5168;47.854;7.944;2023-08-24T05:11:26;4.50;;;3.00;;
10246;SDS011;5168;47.854;7.944;2023-08-24T05:13:54;7.43;;;3.13;;
10246;SDS011;5168;47.854;7.944;2023-08-24T05:16:20;4.50;;;3.20;;
10246;SDS011;5168;47.854;7.944;2023-08-24T05:18:46;5.63;;;3.30;;
10246;SDS011;5168;47.854;7.944;2023-08-24T05:21:12;4.43;;;3.10;;
10246;SDS011;5168;47.854;7.944;2023-08-24T05:23:37;7.07;;;3.30;;
10246;SDS011;5168;47.854;7.944;2023-08-24T05:26:03;3.70;;;2.83;;
10246;SDS011;5168;47.854;7.944;2023-08-24T05:28:30;3.40;;;3.10;;
10246;SDS011;5168;47.854;7.944;2023-08-24T05:30:56;6.20;;;3.80;;
10246;SDS011;5168;47.854;7.944;2023-08-24T05:33:23;3.97;;;3.47;;
10246;SDS011;5168;47.854;7.944;2023-08-24T05:35:50;4.93;;;3.30;;
10246;SDS011;5168;47.854;7.944;2023-08-24T05:38:16;4.60;;;3.23;;
10246;SDS011;5168;47.854;7.944;2023-08-24T05:40:42;4.47;;;3.37;;
10246;SDS011;5168;47.854;7.944;2023-08-24T05:43:11;6.33;;;3.60;;
10246;SDS011;5168;47.854;7.944;2023-08-24T05:45:37;5.43;;;3.40;;
10246;SDS011;5168;47.854;7.944;2023-08-24T05:48:05;4.70;;;3.77;;
10246;SDS011;5168;47.854;7.944;2023-08-24T05:50:30;3.43;;;3.13;;
10246;SDS011;5168;47.854;7.944;2023-08-24T05:52:56;3.63;;;3.33;;
10246;SDS011;5168;47.854;7.944;2023-08-24T05:55:22;6.03;;;3.23;;
10246;SDS011;5168;47.854;7.944;2023-08-24T05:57:48;7.37;;;3.50;;
10246;SDS011;5168;47.854;7.944;2023-08-24T06:00:14;6.90;;;3.37;;
10246;SDS011;5168;47.854;7.944;2023-08-24T06:02:39;7.77;;;3.50;;
10246;SDS011;5168;47.854;7.944;2023-08-24T06:05:06;5.18;;;3.70;;
10246;SDS011;5168;47.854;7.944;2023-08-24T06:07:32;5.70;;;3.67;;
10246;SDS011;5168;47.854;7.944;2023-08-24T06:09:58;4.22;;;3.45;;
10246;SDS011;5168;47.854;7.944;2023-08-24T06:12:25;6.97;;;3.47;;
10246;SDS011;5168;47.854;7.944;2023-08-24T06:14:51;8.70;;;3.80;;
10246;SDS011;5168;47.854;7.944;2023-08-24T06:17:17;7.88;;;3.55;;
10246;SDS011;5168;47.854;7.944;2023-08-24T06:19:42;6.70;;;3.33;;
10246;SDS011;5168;47.854;7.944;2023-08-24T06:22:08;5.25;;;3.70;;
10246;SDS011;5168;47.854;7.944;2023-08-24T06:24:33;5.95;;;3.50;;
10246;SDS011;5168;47.854;7.944;2023-08-24T06:26:59;5.13;;;3.47;;
10246;SDS011;5168;47.854;7.944;2023-08-24T06:29:26;11.02;;;4.20;;
10246;SDS011;5168;47.854;7.944;2023-08-24T06:31:53;4.70;;;3.50;;
10246;SDS011;5168;47.854;7.944;2023-08-24T06:34:19;4.20;;;3.60;;
10246;SDS011;5168;47.854;7.944;2023-08-24T06:36:45;6.53;;;4.05;;
10246;SDS011;5168;47.854;7.944;2023-08-24T06:39:12;4.15;;;3.40;;
10246;SDS011;5168;47.854;7.944;2023-08-24T06:41:38;6.50;;;3.50;;
10246;SDS011;5168;47.854;7.944;2023-08-24T06:44:04;5.10;;;3.17;;
10246;SDS011;5168;47.854;7.944;2023-08-24T06:46:30;3.35;;;3.00;;
10246;SDS011;5168;47.854;7.944;2023-08-24T06:48:56;3.75;;;3.35;;
10246;SDS011;5168;47.854;7.944;2023-08-24T06:51:22;4.10;;;3.22;;
10246;SDS011;5168;47.854;7.944;2023-08-24T06:53:48;8.70;;;3.47;;
10246;SDS011;5168;47.854;7.944;2023-08-24T06:56:14;3.85;;;3.17;;
10246;SDS011;5168;47.854;7.944;2023-08-24T06:58:43;3.55;;;3.08;;
10246;SDS011;5168;47.854;7.944;2023-08-24T07:01:10;3.47;;;3.10;;
10246;SDS011;5168;47.854;7.944;2023-08-24T07:03:36;3.30;;;3.05;;
10246;SDS011;5168;47.854;7.944;2023-08-24T07:06:02;4.82;;;3.15;;
10246;SDS011;5168;47.854;7.944;2023-08-24T07:08:29;4.38;;;3.10;;
10246;SDS011;5168;47.854;7.944;2023-08-24T07:10:55;4.72;;;3.20;;
10246;SDS011;5168;47.854;7.944;2023-08-24T07:13:21;6.53;;;3.47;;
10246;SDS011;5168;47.854;7.944;2023-08-24T07:15:46;9.70;;;3.47;;
10246;SDS011;5168;47.854;7.944;2023-08-24T07:18:12;4.68;;;3.10;;
10246;SDS011;5168;47.854;7.944;2023-08-24T07:20:38;6.38;;;3.63;;
10246;SDS011;5168;47.854;7.944;2023-08-24T07:23:03;3.97;;;3.58;;
10246;SDS011;5168;47.854;7.944;2023-08-24T07:25:30;9.77;;;3.58;;
10246;SDS011;5168;47.854;7.944;2023-08-24T07:27:56;5.35;;;3.15;;
10246;SDS011;5168;47.854;7.944;2023-08-24T07:30:25;3.65;;;3.33;;
10246;SDS011;5168;47.854;7.944;2023-08-24T07:32:54;8.95;;;3.90;;
10246;SDS011;5168;47.854;7.944;2023-08-24T07:35:19;4.50;;;3.55;;
10246;SDS011;5168;47.854;7.944;2023-08-24T07:37:46;9.60;;;3.85;;
10246;SDS011;5168;47.854;7.944;2023-08-24T07:40:13;9.30;;;4.18;;
10246;SDS011;5168;47.854;7.944;2023-08-24T07:42:49;5.63;;;3.83;;
10246;SDS011;5168;47.854;7.944;2023-08-24T07:45:18;6.05;;;3.35;;
10246;SDS011;5168;47.854;7.944;2023-08-24T07:47:44;9.82;;;3.72;;
10246;SDS011;5168;47.854;7.944;2023-08-24T07:50:09;8.27;;;3.42;;
10246;SDS011;5168;47.854;7.944;2023-08-24T07:52:38;9.90;;;4.20;;
10246;SDS011;5168;47.854;7.944;2023-08-24T07:55:05;8.88;;;3.50;;
10246;SDS011;5168;47.854;7.944;2023-08-24T07:57:32;6.05;;;4.07;;
10246;SDS011;5168;47.854;7.944;2023-08-24T07:59:58;8.68;;;3.47;;
10246;SDS011;5168;47.854;7.944;2023-08-24T08:02:24;8.52;;;3.95;;
10246;SDS011;5168;47.854;7.944;2023-08-24T08:04:50;13.15;;;4.05;;
10246;SDS011;5168;47.854;7.944;2023-08-24T08:07:15;9.60;;;3.67;;
10246;SDS011;5168;47.854;7.944;2023-08-24T08:09:41;11.73;;;4.07;;
10246;SDS011;5168;47.854;7.944;2023-08-24T08:12:07;8.50;;;3.55;;
10246;SDS011;5168;47.854;7.944;2023-08-24T08:14:33;11.52;;;4.10;;
10246;SDS011;5168;47.854;7.944;2023-08-24T08:16:58;11.13;;;3.72;;
10246;SDS011;5168;47.854;7.944;2023-08-24T08:19:24;7.95;;;3.50;;
10246;SDS011;5168;47.854;7.944;2023-08-24T08:21:53;13.25;;;3.78;;
10246;SDS011;5168;47.854;7.944;2023-08-24T08:24:18;11.10;;;4.03;;
10246;SDS011;5168;47.854;7.944;2023-08-24T08:26:44;9.07;;;3.75;;
10246;SDS011;5168;47.854;7.944;2023-08-24T08:29:10;9.98;;;3.53;;
10246;SDS011;5168;47.854;7.944;2023-08-24T08:31:35;8.13;;;4.30;;
10246;SDS011;5168;47.854;7.944;2023-08-24T08:34:01;7.88;;;4.38;;
10246;SDS011;5168;47.854;7.944;2023-08-24T08:36:29;6.53;;;3.80;;
10246;SDS011;5168;47.854;7.944;2023-08-24T08:38:57;7.13;;;3.75;;
10246;SDS011;5168;47.854;7.944;2023-08-24T08:41:23;8.68;;;3.72;;
10246;SDS011;5168;47.854;7.944;2023-08-24T08:43:52;8.13;;;3.70;;
10246;SDS011;5168;47.854;7.944;2023-08-24T08:46:18;12.85;;;3.63;;
10246;SDS011;5168;47.854;7.944;2023-08-24T08:48:45;7.45;;;3.28;;
10246;SDS011;5168;47.854;7.944;2023-08-24T08:51:11;6.75;;;3.65;;
10246;SDS011;5168;47.854;7.944;2023-08-24T08:53:39;10.23;;;3.72;;
10246;SDS011;5168;47.854;7.944;2023-08-24T08:56:05;11.43;;;4.18;;
10246;SDS011;5168;47.854;7.944;2023-08-24T08:58:32;9.27;;;4.20;;
10246;SDS011;5168;47.854;7.944;2023-08-24T09:01:01;8.68;;;3.40;;
10246;SDS011;5168;47.854;7.944;2023-08-24T09:03:28;8.40;;;3.75;;
10246;SDS011;5168;47.854;7.944;2023-08-24T09:05:57;8.88;;;3.92;;
10246;SDS011;5168;47.854;7.944;2023-08-24T09:08:23;6.13;;;3.55;;
10246;SDS011;5168;47.854;7.944;2023-08-24T09:10:53;11.95;;;4.20;;
10246;SDS011;5168;47.854;7.944;2023-08-24T09:13:20;10.25;;;3.60;;
10246;SDS011;5168;47.854;7.944;2023-08-24T09:15:46;11.57;;;3.78;;
10246;SDS011;5168;47.854;7.944;2023-08-24T09:18:11;8.27;;;3.35;;
10246;SDS011;5168;47.854;7.944;2023-08-24T09:20:37;6.68;;;3.67;;
10246;SDS011;5168;47.854;7.944;2023-08-24T09:23:02;6.90;;;3.30;;
10246;SDS011;5168;47.854;7.944;2023-08-24T09:25:28;10.88;;;3.72;;
10246;SDS011;5168;47.854;7.944;2023-08-24T09:27:57;6.88;;;3.38;;
10246;SDS011;5168;47.854;7.944;2023-08-24T09:30:45;14.43;;;4.45;;
10246;SDS011;5168;47.854;7.944;2023-08-24T09:33:10;11.05;;;3.88;;
10246;SDS011;5168;47.854;7.944;2023-08-24T09:35:36;11.98;;;3.20;;
10246;SDS011;5168;47.854;7.944;2023-08-24T09:40:47;10.32;;;4.10;;
10246;SDS011;5168;47.854;7.944;2023-08-24T09:43:18;6.70;;;3.47;;
10246;SDS011;5168;47.854;7.944;2023-08-24T09:45:48;8.13;;;3.60;;
10246;SDS011;5168;47.854;7.944;2023-08-24T09:48:14;12.18;;;4.45;;
10246;SDS011;5168;47.854;7.944;2023-08-24T09:50:40;7.38;;;4.05;;
10246;SDS011;5168;47.854;7.944;2023-08-24T09:53:07;8.82;;;3.72;;
10246;SDS011;5168;47.854;7.944;2023-08-24T09:55:37;11.55;;;4.18;;
10246;SDS011;5168;47.854;7.944;2023-08-24T09:58:05;8.80;;;3.83;;
10246;SDS011;5168;47.854;7.944;2023-08-24T10:00:34;7.50;;;3.45;;
10246;SDS011;5168;47.854;7.944;2023-08-24T10:03:02;7.40;;;3.83;;
10246;SDS011;5168;47.854;7.944;2023-08-24T10:05:28;8.07;;;3.42;;
10246;SDS011;5168;47.854;7.944;2023-08-24T10:07:56;7.20;;;3.53;;
10246;SDS011;5168;47.854;7.944;2023-08-24T10:10:26;9.30;;;4.05;;
10246;SDS011;5168;47.854;7.944;2023-08-24T10:13:01;7.03;;;3.58;;
10246;SDS011;5168;47.854;7.944;2023-08-24T10:15:34;9.70;;;3.72;;
10246;SDS011;5168;47.854;7.944;2023-08-24T10:18:02;7.88;;;3.30;;
10246;SDS011;5168;47.854;7.944;2023-08-24T10:20:29;12.63;;;4.03;;
10246;SDS011;5168;47.854;7.944;2023-08-24T10:22:56;10.55;;;3.83;;
10246;SDS011;5168;47.854;7.944;2023-08-24T10:25:23;8.88;;;3.75;;
10246;SDS011;5168;47.854;7.944;2023-08-24T10:27:49;12.70;;;3.85;;
10246;SDS011;5168;47.854;7.944;2023-08-24T10:30:16;7.43;;;3.35;;
10246;SDS011;5168;47.854;7.944;2023-08-24T10:32:44;8.25;;;3.70;;
10246;SDS011;5168;47.854;7.944;2023-08-24T10:35:13;7.32;;;4.20;;
10246;SDS011;5168;47.854;7.944;2023-08-24T10:37:40;7.93;;;3.20;;
10246;SDS011;5168;47.854;7.944;2023-08-24T10:40:09;9.50;;;3.97;;
10246;SDS011;5168;47.854;7.944;2023-08-24T10:42:45;8.90;;;3.78;;
10246;SDS011;5168;47.854;7.944;2023-08-24T10:45:14;6.07;;;3.83;;
10246;SDS011;5168;47.854;7.944;2023-08-24T10:47:44;8.50;;;3.58;;
10246;SDS011;5168;47.854;7.944;2023-08-24T10:50:13;7.47;;;3.90;;
10246;SDS011;5168;47.854;7.944;2023-08-24T10:52:40;10.50;;;3.97;;
10246;SDS011;5168;47.854;7.944;2023-08-24T10:55:27;10.52;;;3.88;;
10246;SDS011;5168;47.854;7.944;2023-08-24T10:57:55;9.45;;;3.80;;
10246;SDS011;5168;47.854;7.944;2023-08-24T11:00:28;6.70;;;3.90;;
10246;SDS011;5168;47.854;7.944;2023-08-24T11:02:55;8.50;;;3.38;;
10246;SDS011;5168;47.854;7.944;2023-08-24T11:05:22;12.38;;;3.92;;
10246;SDS011;5168;47.854;7.944;2023-08-24T11:07:56;7.55;;;3.40;;
10246;SDS011;5168;47.854;7.944;2023-08-24T11:10:23;11.40;;;3.85;;
10246;SDS011;5168;47.854;7.944;2023-08-24T11:13:06;8.55;;;3.50;;
10246;SDS011;5168;47.854;7.944;2023-08-24T11:15:37;5.68;;;3.53;;
10246;SDS011;5168;47.854;7.944;2023-08-24T11:20:51;8.80;;;3.40;;
10246;SDS011;5168;47.854;7.944;2023-08-24T11:23:17;7.88;;;3.28;;
10246;SDS011;5168;47.854;7.944;2023-08-24T11:25:44;11.40;;;3.50;;
10246;SDS011;5168;47.854;7.944;2023-08-24T11:28:10;16.95;;;3.92;;
10246;SDS011;5168;47.854;7.944;2023-08-24T11:30:35;11.57;;;3.90;;
10246;SDS011;5168;47.854;7.944;2023-08-24T11:33:01;9.65;;;3.53;;
10246;SDS011;5168;47.854;7.944;2023-08-24T11:35:28;8.32;;;3.55;;
10246;SDS011;5168;47.854;7.944;2023-08-24T11:37:57;7.38;;;3.63;;
10246;SDS011;5168;47.854;7.944;2023-08-24T11:40:23;7.80;;;3.47;;
10246;SDS011;5168;47.854;7.944;2023-08-24T11:42:54;12.98;;;3.60;;
10246;SDS011;5168;47.854;7.944;2023-08-24T11:45:20;7.72;;;3.72;;
10246;SDS011;5168;47.854;7.944;2023-08-24T11:47:47;5.80;;;3.78;;
10246;SDS011;5168;47.854;7.944;2023-08-24T11:50:13;9.88;;;3.70;;
10246;SDS011;5168;47.854;7.944;2023-08-24T11:52:39;9.15;;;3.55;;
10246;SDS011;5168;47.854;7.944;2023-08-24T11:55:05;9.30;;;4.43;;
10246;SDS011;5168;47.854;7.944;2023-08-24T11:57:35;9.13;;;3.90;;
10246;SDS011;5168;47.854;7.944;2023-08-24T12:00:02;10.48;;;3.80;;
10246;SDS011;5168;47.854;7.944;2023-08-24T12:02:29;8.48;;;3.42;;
10246;SDS011;5168;47.854;7.944;2023-08-24T12:04:55;5.55;;;3.50;;
10246;SDS011;5168;47.854;7.944;2023-08-24T12:07:21;7.40;;;4.13;;
10246;SDS011;5168;47.854;7.944;2023-08-24T12:09:47;10.68;;;3.42;;
10246;SDS011;5168;47.854;7.944;2023-08-24T12:12:16;7.13;;;3.40;;
10246;SDS011;5168;47.854;7.944;2023-08-24T12:14:46;10.43;;;3.28;;
10246;SDS011;5168;47.854;7.944;2023-08-24T12:17:13;11.75;;;3.47;;
10246;SDS011;5168;47.854;7.944;2023-08-24T12:19:43;7.18;;;3.38;;
10246;SDS011;5168;47.854;7.944;2023-08-24T12:22:15;6.82;;;3.75;;
10246;SDS011;5168;47.854;7.944;2023-08-24T12:24:44;6.75;;;3.40;;
10246;SDS011;5168;47.854;7.944;2023-08-24T12:27:20;10.32;;;3.55;;
10246;SDS011;5168;47.854;7.944;2023-08-24T12:29:50;5.88;;;3.30;;
10246;SDS011;5168;47.854;7.944;2023-08-24T12:32:17;8.02;;;3.67;;
10246;SDS011;5168;47.854;7.944;2023-08-24T12:34:50;8.18;;;3.40;;
10246;SDS011;5168;47.854;7.944;2023-08-24T12:37:19;7.57;;;3.50;;
10246;SDS011;5168;47.854;7.944;2023-08-24T12:39:45;9.30;;;3.15;;
10246;SDS011;5168;47.854;7.944;2023-08-24T12:42:11;10.27;;;3.60;;
10246;SDS011;5168;47.854;7.944;2023-08-24T12:44:37;12.00;;;3.13;;
10246;SDS011;5168;47.854;7.944;2023-08-24T12:47:03;14.07;;;3.97;;
10246;SDS011;5168;47.854;7.944;2023-08-24T12:49:29;6.50;;;3.20;;
10246;SDS011;5168;47.854;7.944;2023-08-24T12:51:55;13.48;;;3.70;;
10246;SDS011;5168;47.854;7.944;2023-08-24T12:54:20;13.52;;;3.60;;
10246;SDS011;5168;47.854;7.944;2023-08-24T12:56:47;14.48;;;3.70;;
10246;SDS011;5168;47.854;7.944;2023-08-24T12:59:12;12.98;;;4.07;;
10246;SDS011;5168;47.854;7.944;2023-08-24T13:01:38;13.30;;;3.55;;
10246;SDS011;5168;47.854;7.944;2023-08-24T13:04:04;9.27;;;3.63;;
10246;SDS011;5168;47.854;7.944;2023-08-24T13:06:30;12.43;;;3.40;;
10246;SDS011;5168;47.854;7.944;2023-08-24T13:08:55;11.75;;;3.40;;
10246;SDS011;5168;47.854;7.944;2023-08-24T13:11:21;15.07;;;3.83;;
10246;SDS011;5168;47.854;7.944;2023-08-24T13:13:47;12.40;;;3.17;;
10246;SDS011;5168;47.854;7.944;2023-08-24T13:16:13;9.88;;;3.25;;
10246;SDS011;5168;47.854;7.944;2023-08-24T13:18:39;13.63;;;3.53;;
10246;SDS011;5168;47.854;7.944;2023-08-24T13:21:05;15.52;;;3.20;;
10246;SDS011;5168;47.854;7.944;2023-08-24T13:23:30;9.82;;;2.95;;
10246;SDS011;5168;47.854;7.944;2023-08-24T13:25:57;12.63;;;3.58;;
10246;SDS011;5168;47.854;7.944;2023-08-24T13:28:23;9.35;;;3.38;;
10246;SDS011;5168;47.854;7.944;2023-08-24T13:30:49;9.23;;;3.10;;
10246;SDS011;5168;47.854;7.944;2023-08-24T13:33:14;11.07;;;3.47;;
10246;SDS011;5168;47.854;7.944;2023-08-24T13:35:40;10.23;;;3.67;;
10246;SDS011;5168;47.854;7.944;2023-08-24T13:38:06;12.05;;;3.63;;
10246;SDS011;5168;47.854;7.944;2023-08-24T13:40:31;8.38;;;3.15;;
10246;SDS011;5168;47.854;7.944;2023-08-24T13:42:57;6.45;;;2.95;;
10246;SDS011;5168;47.854;7.944;2023-08-24T13:45:23;8.38;;;2.88;;
10246;SDS011;5168;47.854;7.944;2023-08-24T13:47:48;8.20;;;3.15;;
10246;SDS011;5168;47.854;7.944;2023-08-24T13:50:14;7.85;;;3.10;;
10246;SDS011;5168;47.854;7.944;2023-08-24T13:52:40;8.32;;;3.08;;
10246;SDS011;5168;47.854;7.944;2023-08-24T13:55:05;13.43;;;3.20;;
10246;SDS011;5168;47.854;7.944;2023-08-24T13:57:31;12.82;;;3.53;;
10246;SDS011;5168;47.854;7.944;2023-08-24T13:59:57;14.27;;;2.90;;
10246;SDS011;5168;47.854;7.944;2023-08-24T14:02:22;13.48;;;3.75;;
10246;SDS011;5168;47.854;7.944;2023-08-24T14:04:48;9.32;;;3.65;;
10246;SDS011;5168;47.854;7.944;2023-08-24T14:07:14;9.10;;;2.85;;
10246;SDS011;5168;47.854;7.944;2023-08-24T14:09:39;17.13;;;3.20;;
10246;SDS011;5168;47.854;7.944;2023-08-24T14:12:05;8.52;;;2.92;;
10246;SDS011;5168;47.854;7.944;2023-08-24T14:14:31;7.85;;;3.08;;
10246;SDS011;5168;47.854;7.944;2023-08-24T14:16:56;9.73;;;3.03;;
10246;SDS011;5168;47.854;7.944;2023-08-24T14:19:22;7.78;;;2.65;;
10246;SDS011;5168;47.854;7.944;2023-08-24T14:21:48;12.15;;;3.30;;
10246;SDS011;5168;47.854;7.944;2023-08-24T14:24:13;8.95;;;3.08;;
10246;SDS011;5168;47.854;7.944;2023-08-24T14:26:39;7.90;;;2.72;;
10246;SDS011;5168;47.854;7.944;2023-08-24T14:29:10;10.38;;;2.78;;
10246;SDS011;5168;47.854;7.944;2023-08-24T14:31:36;11.43;;;2.97;;
10246;SDS011;5168;47.854;7.944;2023-08-24T14:34:01;9.70;;;3.10;;
10246;SDS011;5168;47.854;7.944;2023-08-24T14:36:28;8.73;;;3.28;;
10246;SDS011;5168;47.854;7.944;2023-08-24T14:38:53;14.07;;;2.95;;
10246;SDS011;5168;47.854;7.944;2023-08-24T14:41:19;6.05;;;2.90;;
10246;SDS011;5168;47.854;7.944;2023-08-24T14:43:45;8.55;;;2.80;;
10246;SDS011;5168;47.854;7.944;2023-08-24T14:46:11;9.57;;;2.88;;
10246;SDS011;5168;47.854;7.944;2023-08-24T14:48:37;9.52;;;3.30;;
10246;SDS011;5168;47.854;7.944;2023-08-24T14:51:04;8.05;;;2.95;;
10246;SDS011;5168;47.854;7.944;2023-08-24T14:53:29;10.52;;;3.10;;
10246;SDS011;5168;47.854;7.944;2023-08-24T14:55:55;6.97;;;2.97;;
10246;SDS011;5168;47.854;7.944;2023-08-24T14:58:22;8.23;;;2.90;;
10246;SDS011;5168;47.854;7.944;2023-08-24T15:00:51;7.50;;;2.72;;
10246;SDS011;5168;47.854;7.944;2023-08-24T15:03:18;10.00;;;2.85;;
10246;SDS011;5168;47.854;7.944;2023-08-24T15:05:46;6.90;;;2.80;;